Time;durP1;ratioP1;P1;durP2;ratioP2;P2;SDS_P1;SDS_P2;PMS_P1;PMS_P2;Temp;Humidity;BMP_temperature;BMP_pressure;BME280_temperature;BME280_humidity;BME280_pressure;Samples;Min_cycle;Max_cycle;Signal;HPM_P1;HPM_P2
2024/03/06 00:03:43;;;;;;;28.27;14.40;;;;;;;9.36;75.19;99230.78;4984327;28;20099;-92
2024/03/06 00:06:08;;;;;;;27.92;14.55;;;;;;;9.35;74.76;99213.84;4958623;28;20046;-93
2024/03/06 00:08:35;;;;;;;29.90;15.27;;;;;;;9.26;74.04;99207.38;4962954;28;20041;-94
2024/03/06 00:11:00;;;;;;;28.15;16.08;;;;;;;9.28;74.31;99211.41;4951506;28;20045;-93
2024/03/06 00:13:26;;;;;;;32.60;16.67;;;;;;;9.32;73.93;99217.06;4932528;28;20063;-93
2024/03/06 00:15:51;;;;;;;33.03;15.98;;;;;;;9.19;73.89;99199.53;4963838;28;20033;-92
2024/03/06 00:18:17;;;;;;;38.13;17.63;;;;;;;9.24;73.22;99221.06;4931924;28;20038;-95
2024/03/06 00:20:44;;;;;;;34.50;17.05;;;;;;;8.98;74.17;99190.59;4948321;28;20035;-93
2024/03/06 00:23:10;;;;;;;33.30;17.50;;;;;;;9.10;73.89;99211.88;4947934;28;20034;-94
2024/03/06 00:25:36;;;;;;;28.23;16.48;;;;;;;9.15;73.71;99219.16;4963696;28;20057;-93
2024/03/06 00:28:02;;;;;;;35.90;17.45;;;;;;;9.16;74.49;99229.63;4933162;28;20035;-94
2024/03/06 00:30:28;;;;;;;32.72;16.95;;;;;;;9.05;74.56;99236.84;4947726;28;20132;-94
2024/03/06 00:32:54;;;;;;;32.20;16.90;;;;;;;8.90;73.43;99226.00;4948880;28;20031;-93
2024/03/06 00:35:20;;;;;;;32.53;17.15;;;;;;;8.88;73.95;99228.16;4964398;28;20037;-94
2024/03/06 00:37:45;;;;;;;32.55;16.52;;;;;;;9.03;73.60;99238.19;4947022;28;20042;-95
2024/03/06 00:40:11;;;;;;;34.33;16.38;;;;;;;8.76;73.32;99214.94;4947790;28;20398;-95
2024/03/06 00:42:38;;;;;;;28.15;15.73;;;;;;;8.68;73.29;99228.88;4947920;28;20193;-94
2024/03/06 00:45:04;;;;;;;28.15;16.00;;;;;;;8.68;73.20;99232.34;4948242;28;20062;-94
2024/03/06 00:47:29;;;;;;;28.77;15.35;;;;;;;8.76;73.18;99224.84;4932305;28;20019;-94
2024/03/06 00:49:55;;;;;;;30.40;15.23;;;;;;;8.67;73.13;99211.97;4964369;28;20064;-94
2024/03/06 00:52:20;;;;;;;26.05;15.98;;;;;;;8.93;73.98;99252.34;4948749;28;20042;-95
2024/03/06 00:54:46;;;;;;;33.53;16.38;;;;;;;8.84;74.41;99235.09;4963640;28;20045;-95
2024/03/06 00:57:11;;;;;;;28.83;16.63;;;;;;;8.77;73.41;99226.50;4931978;28;20035;-94
2024/03/06 00:59:37;;;;;;;33.42;16.52;;;;;;;8.71;74.17;99220.28;4948529;28;20094;-93
2024/03/06 01:02:02;;;;;;;30.90;15.95;;;;;;;8.77;74.79;99221.91;4947148;28;20027;-96
2024/03/06 01:04:28;;;;;;;34.10;17.02;;;;;;;8.73;75.60;99222.72;4928227;29;20056;-95
2024/03/06 01:06:53;;;;;;;27.95;15.60;;;;;;;8.80;73.36;99215.22;4911445;29;20039;-93
2024/03/06 01:09:19;;;;;;;30.50;16.73;;;;;;;9.00;74.08;99231.44;4927496;29;20038;-92
2024/03/06 01:11:46;;;;;;;30.58;16.73;;;;;;;8.80;73.60;99225.97;4928262;29;20034;-95
2024/03/06 01:14:12;;;;;;;32.30;16.80;;;;;;;8.76;73.70;99219.50;4926822;29;20031;-94
2024/03/06 01:16:37;;;;;;;25.35;16.27;;;;;;;8.82;73.39;99219.28;4926182;29;20027;-94
2024/03/06 01:19:03;;;;;;;30.98;16.70;;;;;;;8.81;74.17;99241.00;4911708;29;20042;-93
2024/03/06 01:21:29;;;;;;;30.75;16.27;;;;;;;8.80;73.72;99239.38;4926266;29;20027;-94
2024/03/06 01:23:54;;;;;;;29.00;15.85;;;;;;;9.02;73.87;99271.47;4927449;29;20031;-94
2024/03/06 01:26:20;;;;;;;34.55;16.98;;;;;;;8.86;73.90;99239.16;4927866;29;20411;-95
2024/03/06 01:28:46;;;;;;;28.05;15.98;;;;;;;8.88;73.86;99250.47;4926776;29;20034;-95
2024/03/06 01:31:13;;;;;;;35.00;17.13;;;;;;;8.94;72.67;99266.59;4911530;29;20085;-94
2024/03/06 01:33:38;;;;;;;27.70;15.95;;;;;;;8.73;74.01;99241.50;4927046;29;20031;-93
2024/03/06 01:36:04;;;;;;;36.13;16.55;;;;;;;8.68;74.26;99266.44;4927316;29;20023;-92
2024/03/06 01:38:31;;;;;;;34.05;17.88;;;;;;;8.66;74.79;99269.38;4912899;29;20039;-92
2024/03/06 01:40:57;;;;;;;33.97;16.70;;;;;;;8.68;74.53;99269.13;4926283;29;20142;-94
2024/03/06 01:43:23;;;;;;;30.67;16.63;;;;;;;8.51;72.98;99247.81;4911145;29;20062;-93
2024/03/06 01:45:49;;;;;;;31.50;16.17;;;;;;;8.62;72.31;99276.31;4911427;29;20126;-96
2024/03/06 01:48:20;;;;;;;25.67;14.50;;;;;;;8.54;73.18;99265.25;4908943;29;20026;-94
2024/03/06 01:50:46;;;;;;;31.37;16.13;;;;;;;8.61;73.32;99274.72;4911043;29;20049;-93
2024/03/06 01:53:12;;;;;;;29.88;16.92;;;;;;;8.56;72.57;99281.91;4925819;29;20039;-94
2024/03/06 01:55:37;;;;;;;32.00;16.65;;;;;;;8.68;71.97;99285.22;4909860;29;20053;-93
2024/03/06 01:58:03;;;;;;;29.77;16.10;;;;;;;8.48;73.24;99277.81;4910713;29;20030;-94
2024/03/06 02:00:29;;;;;;;25.02;15.50;;;;;;;8.31;72.44;99248.44;4926250;29;20038;-93
2024/03/06 02:02:55;;;;;;;27.50;15.55;;;;;;;8.47;71.71;99281.59;4910674;28;20055;-94
2024/03/06 02:05:20;;;;;;;30.38;17.75;;;;;;;8.31;72.71;99272.56;4926458;29;20054;-94
2024/03/06 02:07:46;;;;;;;33.47;16.58;;;;;;;8.21;72.49;99273.28;4909890;29;20513;-95
2024/03/06 02:10:12;;;;;;;35.38;15.55;;;;;;;8.20;72.62;99271.69;4941825;28;20094;-94
2024/03/06 02:12:40;;;;;;;31.52;15.07;;;;;;;8.32;73.37;99295.63;4925616;29;20059;-94
2024/03/06 02:15:06;;;;;;;32.75;15.98;;;;;;;8.06;73.12;99271.28;4927101;29;20434;-93
2024/03/06 02:17:32;;;;;;;33.28;16.40;;;;;;;7.90;73.97;99278.38;4910993;29;20039;-94
2024/03/06 02:20:00;;;;;;;30.13;16.00;;;;;;;7.93;73.05;99268.19;4924973;29;20450;-95
2024/03/06 02:22:26;;;;;;;29.60;15.90;;;;;;;7.89;73.62;99284.81;4927448;29;20046;-94
2024/03/06 02:24:51;;;;;;;28.23;15.75;;;;;;;7.77;73.47;99275.28;4927526;29;20027;-93
2024/03/06 02:27:17;;;;;;;28.92;15.25;;;;;;;7.79;72.57;99282.00;4909287;29;20114;-94
2024/03/06 02:29:43;;;;;;;27.52;14.80;;;;;;;7.86;72.93;99311.28;4926480;29;20051;-93
2024/03/06 02:32:09;;;;;;;28.73;15.50;;;;;;;7.62;72.28;99279.44;4925993;29;20391;-95
2024/03/06 02:34:35;;;;;;;27.92;15.25;;;;;;;7.67;71.80;99266.06;4926078;29;20042;-93
2024/03/06 02:37:00;;;;;;;27.42;14.68;;;;;;;7.95;71.58;99300.91;4910326;29;20428;-96
2024/03/06 02:39:26;;;;;;;26.50;14.52;;;;;;;7.83;73.02;99287.69;4926378;29;20031;-92
2024/03/06 02:41:52;;;;;;;29.30;14.27;;;;;;;7.71;73.02;99290.50;4933639;29;20411;-94
2024/03/06 02:44:18;;;;;;;30.50;14.77;;;;;;;7.75;71.18;99286.25;4943834;29;20039;-94
2024/03/06 02:46:48;;;;;;;26.42;13.98;;;;;;;7.76;70.88;99293.25;4933727;29;20031;-93
2024/03/06 02:49:14;;;;;;;22.30;13.25;;;;;;;7.57;71.21;99271.31;4929756;29;20068;-95
2024/03/06 02:51:40;;;;;;;24.58;13.57;;;;;;;7.62;70.91;99308.09;4926300;29;20031;-94
2024/03/06 02:54:05;;;;;;;29.50;13.95;;;;;;;7.63;70.96;99298.97;4929719;29;20034;-95
2024/03/06 02:56:31;;;;;;;26.25;14.00;;;;;;;7.72;70.64;99312.75;4929919;29;20113;-94
2024/03/06 02:58:57;;;;;;;28.95;14.07;;;;;;;7.58;70.16;99291.69;4929642;29;20046;-94
2024/03/06 03:01:23;;;;;;;28.15;14.23;;;;;;;7.57;70.60;99302.66;4914139;29;20130;-94
2024/03/06 03:03:48;;;;;;;27.30;13.77;;;;;;;7.68;71.18;99331.22;4946057;28;20097;-95
2024/03/06 03:06:14;;;;;;;29.67;14.50;;;;;;;7.67;71.57;99330.38;4963450;28;20027;-94
2024/03/06 03:08:40;;;;;;;24.88;13.30;;;;;;;7.60;71.00;99305.66;4965944;28;20043;-95
2024/03/06 03:11:05;;;;;;;34.67;14.65;;;;;;;7.61;70.47;99327.91;4964119;28;20035;-93
2024/03/06 03:13:31;;;;;;;29.15;14.35;;;;;;;7.52;71.76;99299.94;4965077;28;20042;-94
2024/03/06 03:15:56;;;;;;;28.90;14.45;;;;;;;7.56;70.69;99301.88;4964641;28;20030;-93
2024/03/06 03:18:22;;;;;;;28.52;14.55;;;;;;;7.66;71.37;99314.56;4965441;28;20044;-92
2024/03/06 03:20:48;;;;;;;34.83;13.93;;;;;;;7.57;70.97;99291.94;4964987;28;20069;-93
2024/03/06 03:23:15;;;;;;;32.15;14.05;;;;;;;7.55;71.38;99275.31;4963399;28;20031;-92
2024/03/06 03:25:41;;;;;;;24.60;14.38;;;;;;;7.57;72.53;99290.06;4963626;28;20039;-94
2024/03/06 03:28:06;;;;;;;27.38;15.45;;;;;;;7.66;72.74;99310.03;4948531;28;20041;-94
2024/03/06 03:30:32;;;;;;;28.40;15.52;;;;;;;7.76;73.25;99303.97;4963875;28;20031;-95
2024/03/06 03:32:58;;;;;;;28.90;15.27;;;;;;;7.74;71.57;99298.06;4971143;28;20026;-94
2024/03/06 03:35:25;;;;;;;29.83;14.48;;;;;;;7.69;71.17;99293.41;4963948;28;20031;-94
2024/03/06 03:37:55;;;;;;;26.23;14.07;;;;;;;7.83;72.40;99315.28;4932022;28;20041;-94
2024/03/06 03:40:26;;;;;;;28.77;15.00;;;;;;;7.97;71.21;99320.25;4938622;28;20039;-93
2024/03/06 03:42:52;;;;;;;31.00;14.80;;;;;;;7.76;71.49;99298.63;4981375;28;20512;-94
2024/03/06 03:45:18;;;;;;;26.58;14.27;;;;;;;7.67;71.47;99302.78;4947978;28;20043;-94
2024/03/06 03:47:43;;;;;;;27.05;14.45;;;;;;;7.86;71.54;99328.22;4964848;28;20069;-93
2024/03/06 03:50:09;;;;;;;27.50;14.32;;;;;;;7.87;71.96;99327.13;4962829;28;20034;-93
2024/03/06 03:52:34;;;;;;;28.23;14.57;;;;;;;7.82;72.69;99319.06;4968947;28;20097;-94
2024/03/06 03:55:00;;;;;;;29.48;14.80;;;;;;;7.84;72.01;99308.88;4960569;28;20141;-93
2024/03/06 03:57:25;;;;;;;23.77;13.48;;;;;;;7.77;72.58;99307.44;4961499;28;20112;-93
2024/03/06 03:59:51;;;;;;;34.72;14.98;;;;;;;7.81;72.95;99317.41;4965005;28;20039;-93
2024/03/06 04:02:17;;;;;;;23.52;14.35;;;;;;;7.86;71.67;99327.38;4947751;28;20105;-93
2024/03/06 04:04:42;;;;;;;25.60;13.98;;;;;;;7.95;71.67;99336.59;4928197;29;20494;-93
2024/03/06 04:07:08;;;;;;;25.88;14.48;;;;;;;7.88;71.91;99331.41;4954718;28;20018;-92
2024/03/06 04:09:36;;;;;;;23.63;14.65;;;;;;;7.80;72.82;99323.03;4951580;28;20047;-94
2024/03/06 04:12:05;;;;;;;25.08;14.35;;;;;;;7.92;72.90;99349.69;4941207;28;20170;-94
2024/03/06 04:14:30;;;;;;;27.35;15.55;;;;;;;7.87;71.81;99329.00;4947522;28;20046;-94
2024/03/06 04:16:56;;;;;;;30.85;14.68;;;;;;;7.75;71.59;99322.97;4962111;28;20057;-94
2024/03/06 04:19:21;;;;;;;24.10;14.32;;;;;;;7.91;71.27;99348.91;4948362;28;20061;-94
2024/03/06 04:21:47;;;;;;;32.38;15.23;;;;;;;7.83;71.61;99343.97;4946764;28;20042;-94
2024/03/06 04:24:12;;;;;;;31.55;15.50;;;;;;;7.81;71.76;99349.56;4947955;28;20448;-95
2024/03/06 04:26:38;;;;;;;24.42;14.68;;;;;;;8.01;71.60;99373.13;4963540;28;20038;-95
2024/03/06 04:29:03;;;;;;;25.55;14.57;;;;;;;7.92;71.40;99342.47;4946949;28;20039;-95
2024/03/06 04:31:29;;;;;;;33.97;14.88;;;;;;;8.06;71.86;99372.38;4947968;28;20038;-95
2024/03/06 04:33:54;;;;;;;28.42;15.77;;;;;;;7.98;72.80;99370.94;4946124;28;20109;-94
2024/03/06 04:36:20;;;;;;;27.50;15.52;;;;;;;7.81;73.88;99335.38;4946588;28;20032;-95
2024/03/06 04:38:46;;;;;;;25.52;14.63;;;;;;;7.77;73.91;99339.63;4947435;28;20109;-94
2024/03/06 04:41:11;;;;;;;30.08;15.27;;;;;;;7.82;73.99;99345.84;4946075;28;20039;-95
2024/03/06 04:43:37;;;;;;;28.80;15.75;;;;;;;7.77;73.20;99343.09;4951868;28;20481;-92
2024/03/06 04:46:04;;;;;;;26.90;15.98;;;;;;;8.03;73.21;99371.00;4947679;28;20070;-94
2024/03/06 04:48:29;;;;;;;27.08;14.85;;;;;;;7.96;73.05;99370.38;4947277;28;20460;-95
2024/03/06 04:50:55;;;;;;;25.77;15.30;;;;;;;7.82;72.83;99340.50;4946989;28;20038;-94
2024/03/06 04:53:20;;;;;;;28.58;16.33;;;;;;;7.95;72.39;99336.59;4945715;28;20062;-95
2024/03/06 04:55:46;;;;;;;29.05;15.75;;;;;;;8.16;72.01;99369.81;4946021;28;20039;-94
2024/03/06 04:58:12;;;;;;;25.65;15.48;;;;;;;8.04;72.12;99348.50;4946569;28;20049;-94
2024/03/06 05:00:37;;;;;;;34.17;16.08;;;;;;;8.10;72.35;99370.81;4946887;28;20041;-96
2024/03/06 05:03:11;;;;;;;31.15;16.15;;;;;;;8.10;70.57;99373.50;4948778;28;20434;-95
2024/03/06 05:05:38;;;;;;;33.08;15.43;;;;;;;7.96;70.95;99350.81;4927848;28;20035;-94
2024/03/06 05:08:11;;;;;;;27.80;15.00;;;;;;;7.99;70.87;99361.03;4946525;28;20098;-94
2024/03/06 05:10:40;;;;;;;28.48;15.38;;;;;;;7.93;70.03;99351.31;4947734;28;20437;-95
2024/03/06 05:13:05;;;;;;;23.55;14.10;;;;;;;7.94;69.81;99361.78;4947160;28;20043;-96
2024/03/06 05:15:39;;;;;;;28.00;14.88;;;;;;;7.90;70.27;99364.16;4956894;28;20051;-96
2024/03/06 05:18:14;;;;;;;29.05;15.57;;;;;;;7.88;70.75;99352.06;4964633;28;20050;-96
2024/03/06 05:20:43;;;;;;;26.38;15.18;;;;;;;7.98;69.96;99372.81;4949652;28;20045;-95
2024/03/06 05:23:08;;;;;;;31.30;15.95;;;;;;;8.06;70.52;99385.78;4934896;28;20042;-95
2024/03/06 05:25:34;;;;;;;26.38;15.48;;;;;;;8.08;70.42;99389.03;4967000;28;20058;-94
2024/03/06 05:28:01;;;;;;;28.50;15.45;;;;;;;7.99;70.02;99372.56;4966716;28;20042;-94
2024/03/06 05:30:26;;;;;;;29.85;16.45;;;;;;;7.94;69.70;99369.81;4944186;28;20039;-94
2024/03/06 05:32:52;;;;;;;33.08;15.27;;;;;;;8.01;69.63;99388.38;4928075;29;20043;-95
2024/03/06 05:35:18;;;;;;;26.25;15.20;;;;;;;8.14;69.62;99406.00;4911237;29;20060;-95
2024/03/06 05:37:47;;;;;;;27.35;15.40;;;;;;;8.01;69.55;99380.34;4941901;29;20520;-93
2024/03/06 05:40:14;;;;;;;26.70;15.98;;;;;;;8.14;71.59;99420.19;4963778;28;20039;-94
2024/03/06 05:42:42;;;;;;;35.47;16.88;;;;;;;8.05;71.29;99390.34;4942070;29;20039;-94
2024/03/06 05:45:12;;;;;;;30.55;15.90;;;;;;;8.09;71.76;99390.63;4930241;28;20145;-94
2024/03/06 05:47:38;;;;;;;32.50;17.67;;;;;;;8.07;71.90;99407.00;4980453;28;20035;-94
2024/03/06 05:50:39;;;;;;;31.75;16.77;;;;;;;8.13;70.26;99405.16;4932110;28;20039;-92
2024/03/06 05:53:05;;;;;;;32.28;15.45;;;;;;;8.13;70.85;99413.19;4930729;28;20039;-95
2024/03/06 05:55:33;;;;;;;30.02;16.02;;;;;;;7.98;70.72;99410.34;4949492;28;20509;-95
2024/03/06 05:58:00;;;;;;;31.23;16.33;;;;;;;7.99;70.26;99412.78;4944531;28;20421;-95
2024/03/06 06:00:25;;;;;;;29.45;14.90;;;;;;;8.24;70.23;99428.38;4968483;28;20062;-93
2024/03/06 06:02:51;;;;;;;35.83;19.85;;;;;;;8.29;69.25;99415.00;4952642;28;20051;-94
2024/03/06 06:05:19;;;;;;;24.35;14.48;;;;;;;8.43;68.42;99431.53;4932995;28;20073;-95
2024/03/06 06:07:45;;;;;;;24.83;15.13;;;;;;;8.32;67.96;99420.91;4936383;28;20074;-94
2024/03/06 06:10:12;;;;;;;26.52;14.75;;;;;;;8.21;67.25;99417.31;4950976;28;20038;-96
2024/03/06 06:12:52;;;;;;;24.42;14.38;;;;;;;8.16;69.25;99423.44;4898923;29;20047;-96
2024/03/06 06:21:17;;;;;;;;;;;;;;;;;;;;;
2024/03/06 06:23:43;;;;;;;28.58;14.90;;;;;;;8.15;69.24;99416.44;4899922;29;20122;-91
2024/03/06 06:26:21;;;;;;;34.28;15.25;;;;;;;8.41;69.67;99446.28;4920134;29;20052;-93
2024/03/06 06:28:46;;;;;;;26.58;14.25;;;;;;;8.41;68.35;99454.31;4864986;29;20181;-91
2024/03/06 06:31:12;;;;;;;29.38;14.18;;;;;;;8.27;68.23;99424.34;4887948;29;20043;-90
2024/03/06 06:33:41;;;;;;;26.75;14.80;;;;;;;8.41;69.09;99462.38;4872434;29;20068;-91
2024/03/06 06:36:06;;;;;;;26.25;15.13;;;;;;;8.29;68.72;99435.66;4875269;29;20124;-88
2024/03/06 06:38:32;;;;;;;28.08;16.35;;;;;;;8.54;70.16;99450.44;4870135;29;20052;-89
2024/03/06 06:41:10;;;;;;;30.67;17.10;;;;;;;8.13;69.97;99420.44;4864276;29;20104;-87
2024/03/06 06:43:35;;;;;;;30.63;14.98;;;;;;;7.97;69.96;99439.03;4893326;29;20040;-89
2024/03/06 06:46:05;;;;;;;32.05;17.70;;;;;;;8.17;69.57;99437.66;4909763;29;20438;-95
2024/03/06 06:48:33;;;;;;;31.65;17.85;;;;;;;8.24;69.28;99439.09;4923236;29;20054;-94
2024/03/06 06:51:03;;;;;;;27.70;15.15;;;;;;;8.37;69.01;99437.09;4911131;29;20080;-92
2024/03/06 06:53:32;;;;;;;30.15;16.70;;;;;;;8.43;68.46;99442.28;4911052;29;20040;-94
2024/03/06 06:56:00;;;;;;;28.67;15.50;;;;;;;8.52;68.26;99455.25;4909585;29;20399;-91
2024/03/06 06:59:02;;;;;;;30.55;14.88;;;;;;;8.74;68.26;99468.63;4914485;29;20056;-94
2024/03/06 07:01:55;;;;;;;27.65;14.13;;;;;;;8.61;68.01;99440.28;4929845;29;20084;-94
2024/03/06 07:11:30;;;;;;;26.60;14.68;;;;;;;8.98;68.86;99477.94;4967201;28;20173;-93
2024/03/06 07:13:56;;;;;;;33.85;15.68;;;;;;;8.73;70.27;99462.41;4948601;28;20414;-95
2024/03/06 07:16:22;;;;;;;36.13;15.93;;;;;;;8.76;70.28;99467.28;4948310;29;20106;-96
2024/03/06 07:18:59;;;;;;;35.67;16.17;;;;;;;8.92;70.03;99457.50;4933990;28;20043;-96
2024/03/06 07:21:33;;;;;;;30.60;16.33;;;;;;;8.92;69.43;99444.06;4950138;28;20050;-95
2024/03/06 07:24:01;;;;;;;29.23;15.77;;;;;;;9.12;69.36;99459.53;4959010;28;20045;-95
2024/03/06 07:26:29;;;;;;;32.95;16.08;;;;;;;9.29;69.22;99483.59;4953325;28;20209;-94
2024/03/06 07:28:58;;;;;;;38.15;17.42;;;;;;;9.24;68.77;99486.25;4969979;28;20190;-94
2024/03/06 07:35:24;;;;;;;;;;;;;;;;;;;;;
2024/03/06 07:37:56;;;;;;;35.38;15.27;;;;;;;9.17;67.81;99466.81;4919255;29;20129;-95
2024/03/06 07:40:37;;;;;;;33.42;15.43;;;;;;;9.06;68.47;99472.13;4892651;29;20040;-92
2024/03/06 07:43:31;;;;;;;38.85;16.10;;;;;;;9.29;67.33;99462.88;4931516;29;20470;-92
2024/03/06 07:46:30;;;;;;;36.72;18.02;;;;;;;9.18;67.63;99463.88;4914660;29;20031;-94
2024/03/06 07:48:56;;;;;;;36.35;16.40;;;;;;;9.17;68.78;99472.19;4914127;29;20481;-92
2024/03/06 07:51:34;;;;;;;36.20;16.25;;;;;;;9.12;69.88;99477.53;4915004;29;20051;-96
2024/03/06 07:54:43;;;;;;;40.92;21.20;;;;;;;9.40;68.78;99511.34;4915662;29;20039;-95
2024/03/06 07:57:41;;;;;;;29.92;15.45;;;;;;;9.36;68.30;99505.69;4930343;29;20155;-94
2024/03/06 08:00:29;;;;;;;;;;;;;;;;;;;;;
2024/03/06 08:11:07;;;;;;;231.40;116.18;;;;;;;9.68;68.62;99519.06;4832832;29;20132;-89
2024/03/06 08:13:43;;;;;;;33.97;15.23;;;;;;;9.60;68.68;99518.75;4865942;29;20033;-95
2024/03/06 08:16:08;;;;;;;34.35;16.17;;;;;;;9.57;68.43;99501.25;4892775;29;20123;-92
2024/03/06 08:18:37;;;;;;;29.70;15.18;;;;;;;9.65;68.75;99521.47;4907606;29;20044;-93
2024/03/06 08:21:28;;;;;;;30.23;15.20;;;;;;;9.58;68.73;99521.69;4913438;28;20105;-94
2024/03/06 08:24:05;;;;;;;32.25;17.45;;;;;;;9.56;68.98;99496.13;4969912;28;20089;-92
2024/03/06 08:27:25;;;;;;;;;;;;;;;;;;;;;
2024/03/06 08:30:41;;;;;;;;;;;;;;;;;;;;;
2024/03/06 08:33:22;;;;;;;58.67;27.73;;;;;;;10.41;65.68;99499.56;4950259;28;20130;-93
2024/03/06 08:39:44;;;;;;;36.80;19.42;;;;;;;10.93;64.80;99513.94;4912305;29;20107;-92
2024/03/06 08:45:41;;;;;;;26.95;15.05;;;;;;;10.84;63.66;99510.19;4945797;29;20035;-92
2024/03/06 08:55:39;;;;;;;;;;;;;;;;;;;;;
2024/03/06 08:58:15;;;;;;;;;;;;;;;;;;;;;
2024/03/06 09:00:43;;;;;;;29.58;15.13;;;;;;;10.37;63.52;99517.31;4942283;29;20127;-94
2024/03/06 09:03:40;;;;;;;26.33;14.40;;;;;;;10.39;63.32;99527.81;4997672;22;20043;31
2024/03/06 09:06:37;;;;;;;;;;;;;;;;;;;;;
2024/03/06 09:09:09;;;;;;;25.65;13.60;;;;;;;10.28;63.50;99508.91;4980368;28;20058;-96
2024/03/06 09:12:04;;;;;;;26.35;14.63;;;;;;;10.21;63.29;99500.28;4966629;28;20034;-95
2024/03/06 09:15:17;;;;;;;26.40;13.52;;;;;;;10.18;64.67;99532.28;4973061;28;20070;-96
2024/03/06 09:31:33;;;;;;;;;;;;;;;;;;;;;
2024/03/06 09:34:36;;;;;;;;;;;;;;;;;;;;;
2024/03/06 09:36:53;;;;;;;29.67;13.57;;;;;;;10.67;62.38;99531.97;4943448;29;19966;-95
2024/03/06 09:49:19;;;;;;;18.42;10.70;;;;;;;10.79;61.90;99529.84;4960361;29;20038;-92
2024/03/06 09:52:01;;;;;;;26.60;11.90;;;;;;;10.85;61.92;99496.47;4947779;29;20451;-94
2024/03/06 09:54:28;;;;;;;21.23;11.65;;;;;;;11.06;61.52;99491.06;4913781;29;20098;-92
2024/03/06 09:57:02;;;;;;;25.13;10.85;;;;;;;11.46;60.85;99525.31;4931672;28;20042;-93
2024/03/06 09:59:30;;;;;;;24.17;11.05;;;;;;;11.38;61.01;99492.69;4933193;28;20038;-92
2024/03/06 10:02:05;;;;;;;27.88;13.80;;;;;;;11.28;60.80;99502.38;4929338;28;20046;-92
2024/03/06 10:04:37;;;;;;;23.42;12.93;;;;;;;11.26;61.16;99492.97;4939143;29;20603;-93
2024/03/06 10:10:22;;;;;;;23.70;12.85;;;;;;;11.45;60.14;99493.22;4903650;29;20036;-94
2024/03/06 10:12:52;;;;;;;25.70;14.30;;;;;;;11.50;60.47;99480.56;4894224;29;20062;-90
2024/03/06 10:20:05;;;;;;;;;;;;;;;;;;;;;
2024/03/06 10:39:44;;;;;;;24.08;13.48;;;;;;;12.90;57.74;99501.34;4685108;30;20049;-94
2024/03/06 10:43:10;;;;;;;;;;;;;;;;;;;;;
2024/03/06 10:46:44;;;;;;;;;;;;;;;;;;;;;
2024/03/06 10:49:13;;;;;;;24.30;14.82;;;;;;;13.07;56.83;99489.34;4718280;30;20093;-95
2024/03/06 10:51:44;;;;;;;22.55;13.07;;;;;;;12.76;56.99;99491.44;4759710;29;20043;-96
2024/03/06 10:54:13;;;;;;;26.52;12.18;;;;;;;12.58;56.54;99476.72;4857908;29;20122;-94
2024/03/06 10:56:41;;;;;;;22.13;12.98;;;;;;;12.77;57.09;99491.16;4850260;29;20180;-93
2024/03/06 10:59:27;;;;;;;30.08;12.85;;;;;;;12.65;57.30;99461.00;4925026;29;20145;-93
2024/03/06 11:02:09;;;;;;;23.25;11.50;;;;;;;12.49;56.83;99488.09;4941440;29;20127;-94
2024/03/06 11:04:46;;;;;;;33.75;13.80;;;;;;;12.28;57.58;99460.38;4925234;29;20056;-93
2024/03/06 11:07:37;;;;;;;23.23;12.23;;;;;;;12.12;58.93;99494.72;4925766;29;20055;-94
2024/03/06 11:10:04;;;;;;;19.98;10.95;;;;;;;12.15;57.89;99466.38;4925620;29;20430;-92
2024/03/06 11:16:47;;;;;;;;;;;;;;;;;;;;;
2024/03/06 11:19:13;;;;;;;36.78;18.00;;;;;;;12.38;56.22;99450.63;4832592;29;20489;-93
2024/03/06 11:21:51;;;;;;;29.75;14.38;;;;;;;12.43;57.01;99458.66;4828497;29;20046;-94
2024/03/06 11:24:24;;;;;;;31.35;14.98;;;;;;;12.29;57.70;99447.69;4902122;29;20031;-92
2024/03/06 11:27:00;;;;;;;23.42;13.00;;;;;;;12.37;56.94;99460.63;4934139;29;20094;-92
2024/03/06 11:29:28;;;;;;;29.20;14.38;;;;;;;12.29;56.94;99435.00;4915580;29;20577;-90
2024/03/06 11:32:22;;;;;;;31.75;15.27;;;;;;;12.29;56.46;99437.69;4919952;28;20031;-94
2024/03/06 11:35:14;;;;;;;28.52;16.00;;;;;;;12.31;57.13;99434.72;4892640;29;20049;-94
2024/03/06 11:37:46;;;;;;;27.85;15.45;;;;;;;12.34;57.48;99448.44;4872753;29;20052;-93
2024/03/06 11:40:16;;;;;;;25.70;13.90;;;;;;;12.36;56.45;99431.97;4909061;29;20040;-94
2024/03/06 11:43:05;;;;;;;25.13;13.48;;;;;;;12.45;56.03;99433.03;4912107;29;20502;-96
2024/03/06 11:45:42;;;;;;;32.67;18.42;;;;;;;12.42;56.12;99425.47;4928503;29;20054;-96
2024/03/06 11:48:16;;;;;;;27.80;14.25;;;;;;;12.73;56.12;99436.88;4921081;29;20055;-96
2024/03/06 11:53:56;;;;;;;26.60;13.70;;;;;;;12.97;56.20;99422.66;4939536;28;20076;-94
2024/03/06 11:59:30;;;;;;;35.20;15.68;;;;;;;13.09;58.38;99452.84;5304768;23;20097;-95
2024/03/06 12:02:05;;;;;;;30.30;15.32;;;;;;;13.07;56.75;99440.69;4970379;28;20026;-92
2024/03/06 12:04:33;;;;;;;30.73;14.57;;;;;;;13.24;56.84;99451.91;4977207;28;20045;-91
2024/03/06 12:06:59;;;;;;;28.63;13.30;;;;;;;13.00;55.86;99416.69;4954054;28;20050;-92
2024/03/06 12:09:25;;;;;;;24.23;13.18;;;;;;;12.88;56.21;99418.94;4962029;28;20045;-91
2024/03/06 12:11:51;;;;;;;24.13;14.80;;;;;;;12.98;56.43;99424.25;4958993;28;20039;-90
2024/03/06 12:14:20;;;;;;;24.45;13.55;;;;;;;13.25;55.53;99450.00;4925847;28;20046;-92
2024/03/06 12:17:04;;;;;;;29.77;13.73;;;;;;;13.09;56.40;99419.56;4950101;28;20406;-92
2024/03/06 12:19:43;;;;;;;;;;;;;;;;;;;;;
2024/03/06 12:22:21;;;;;;;25.95;14.82;;;;;;;12.80;58.66;99454.66;4963889;28;20058;-93
2024/03/06 12:24:47;;;;;;;28.58;13.85;;;;;;;12.69;58.41;99422.31;4947901;28;20035;-93
2024/03/06 12:27:13;;;;;;;26.73;12.65;;;;;;;13.03;56.37;99440.47;4946875;28;20465;-93
2024/03/06 12:29:46;;;;;;;21.52;13.30;;;;;;;13.05;55.17;99422.06;4948670;28;20049;-92
2024/03/06 12:32:20;;;;;;;28.55;14.85;;;;;;;13.05;56.15;99435.56;4948112;28;20101;-94
2024/03/06 12:34:57;;;;;;;31.80;18.83;;;;;;;13.00;55.87;99408.56;4934499;28;20057;-93
2024/03/06 12:37:30;;;;;;;28.95;14.20;;;;;;;13.13;56.58;99428.72;4950433;28;20073;-94
2024/03/06 12:39:55;;;;;;;29.95;13.93;;;;;;;13.12;56.49;99425.22;4948860;28;20031;-94
2024/03/06 12:42:24;;;;;;;28.58;14.48;;;;;;;13.21;56.82;99443.53;4947311;28;20031;-93
2024/03/06 12:44:50;;;;;;;34.08;13.80;;;;;;;12.88;57.54;99421.66;4933007;28;20049;-93
2024/03/06 12:47:15;;;;;;;38.83;16.00;;;;;;;13.05;57.27;99440.16;4930706;28;20062;-94
2024/03/06 12:49:44;;;;;;;55.95;16.10;;;;;;;12.98;57.19;99426.97;4949426;28;20134;-94
2024/03/06 12:52:10;;;;;;;30.83;14.40;;;;;;;12.88;57.64;99433.25;4947988;28;20469;-93
2024/03/06 12:54:38;;;;;;;29.67;14.30;;;;;;;12.65;58.11;99426.66;4946532;28;20043;-94
2024/03/06 12:57:08;;;;;;;33.55;16.65;;;;;;;12.55;58.06;99421.34;4947414;28;20038;-93
2024/03/06 12:59:36;;;;;;;28.63;15.35;;;;;;;12.67;57.57;99402.88;4933732;28;20050;-92
2024/03/06 13:09:02;;;;;;;24.20;13.18;;;;;;;12.42;57.89;99411.16;4940948;29;20545;-93
2024/03/06 13:15:07;;;;;;;24.95;12.68;;;;;;;12.27;57.84;99420.97;4901639;29;20036;-92
2024/03/06 13:17:35;;;;;;;25.52;12.90;;;;;;;12.55;57.50;99415.94;4895330;29;20455;-94
2024/03/06 13:20:01;;;;;;;28.80;14.80;;;;;;;12.58;57.07;99417.28;4934127;28;20039;-92
2024/03/06 13:22:27;;;;;;;28.70;14.48;;;;;;;12.57;57.66;99413.75;4962303;28;20633;-92
2024/03/06 13:24:53;;;;;;;26.60;13.20;;;;;;;12.37;57.15;99398.50;4976408;28;20058;-92
2024/03/06 13:27:59;;;;;;;25.85;13.55;;;;;;;12.76;57.30;99434.69;4966034;28;20039;-93
2024/03/06 13:30:35;;;;;;;24.33;13.40;;;;;;;12.69;57.03;99397.19;4973914;28;20047;-95
2024/03/06 13:33:05;;;;;;;20.63;12.55;;;;;;;12.79;56.78;99394.44;4952560;29;20458;-90
2024/03/06 13:35:31;;;;;;;21.67;12.60;;;;;;;13.03;56.62;99421.53;4959380;28;20035;-91
2024/03/06 13:37:56;;;;;;;30.38;13.00;;;;;;;13.05;56.71;99410.41;4959041;28;20130;-88
2024/03/06 13:40:31;;;;;;;26.80;13.68;;;;;;;13.13;56.09;99413.31;4963520;28;20043;-91
2024/03/06 13:42:57;;;;;;;28.00;12.70;;;;;;;13.03;55.60;99383.69;4947708;29;20035;-90
2024/03/06 13:45:23;;;;;;;28.27;16.13;;;;;;;13.01;56.26;99396.69;4955253;28;20031;-92
2024/03/06 13:47:49;;;;;;;24.80;12.13;;;;;;;12.99;55.97;99392.63;4953806;28;20042;-95
2024/03/06 13:50:28;;;;;;;;;;;;;;;;;;;;;
2024/03/06 13:52:56;;;;;;;28.38;13.20;;;;;;;13.01;56.13;99377.75;4975241;28;20101;-92